Time;durP1;ratioP1;P1;durP2;ratioP2;P2;SDS_P1;SDS_P2;PMS_P1;PMS_P2;Temp;Humidity;BMP_temperature;BMP_pressure;BME280_temperature;BME280_humidity;BME280_pressure;Samples;Min_cycle;Max_cycle;Signal;HPM_P1;HPM_P2
2021/08/24 00:00:14;;;;;;;5.97;3.50;;;15.40;99.90;;;;;;5066063;28;20664;-79
2021/08/24 00:02:42;;;;;;;6.23;3.67;;;15.40;99.90;;;;;;5062140;28;20228;-79
2021/08/24 00:05:11;;;;;;;8.40;4.10;;;15.40;99.90;;;;;;5056856;28;20238;-77
2021/08/24 00:07:38;;;;;;;10.13;4.37;;;15.40;99.90;;;;;;5064361;28;20238;-77
2021/08/24 00:10:07;;;;;;;5.67;3.77;;;15.30;99.90;;;;;;5057616;28;20315;-78
2021/08/24 00:12:34;;;;;;;6.63;4.13;;;15.20;99.90;;;;;;5057566;28;20228;-78
2021/08/24 00:15:04;;;;;;;8.20;4.50;;;15.20;99.90;;;;;;5056932;28;20204;-78
2021/08/24 00:17:31;;;;;;;7.20;4.20;;;15.20;99.90;;;;;;5055989;28;20200;-79
2021/08/24 00:19:58;;;;;;;8.53;4.30;;;15.10;99.90;;;;;;5057528;28;20624;-81
2021/08/24 00:22:25;;;;;;;11.07;4.77;;;15.10;99.90;;;;;;5056164;28;20693;-78
2021/08/24 00:24:51;;;;;;;9.60;4.93;;;15.10;99.90;;;;;;5055228;28;20207;-79
2021/08/24 00:27:18;;;;;;;8.00;4.47;;;15.00;99.90;;;;;;5058975;28;20192;-79
2021/08/24 00:29:45;;;;;;;8.77;4.30;;;15.00;99.90;;;;;;5065228;28;20244;-79
2021/08/24 00:32:13;;;;;;;5.73;4.20;;;15.00;99.90;;;;;;5073267;28;20230;-80
2021/08/24 00:34:40;;;;;;;7.40;4.23;;;15.10;99.90;;;;;;5073345;28;20287;-77
2021/08/24 00:37:07;;;;;;;9.77;4.33;;;15.00;99.90;;;;;;5072868;28;20287;-79
2021/08/24 00:39:34;;;;;;;7.50;4.87;;;15.00;99.90;;;;;;5063014;28;20282;-81
2021/08/24 00:42:01;;;;;;;14.97;4.30;;;14.90;99.90;;;;;;5073155;28;20282;-79
2021/08/24 00:44:28;;;;;;;10.37;5.10;;;14.80;99.90;;;;;;5064719;28;20683;-81
2021/08/24 00:46:55;;;;;;;9.50;5.10;;;14.80;99.90;;;;;;5072727;28;20204;-79
2021/08/24 00:49:27;;;;;;;7.43;4.90;;;14.70;99.90;;;;;;5065648;28;20663;-78
2021/08/24 00:52:00;;;;;;;8.50;5.20;;;14.80;99.90;;;;;;5073148;28;20199;-78
2021/08/24 00:54:27;;;;;;;7.50;4.73;;;14.80;99.90;;;;;;5072669;28;20691;-79
2021/08/24 00:56:58;;;;;;;11.17;5.27;;;14.70;99.90;;;;;;5072607;28;20302;-78
2021/08/24 00:59:26;;;;;;;9.80;5.60;;;14.70;99.90;;;;;;5072546;28;20287;-79
2021/08/24 01:01:53;;;;;;;8.60;4.87;;;14.70;99.90;;;;;;5072780;28;20204;-79
2021/08/24 01:04:21;;;;;;;11.23;5.37;;;14.60;99.90;;;;;;5072770;28;20261;-79
2021/08/24 01:06:55;;;;;;;8.90;5.20;;;14.60;99.90;;;;;;5067027;28;20235;-79
2021/08/24 01:09:35;;;;;;;11.87;5.80;;;14.60;99.90;;;;;;5065277;28;20302;-77
2021/08/24 01:12:08;;;;;;;7.83;5.00;;;14.50;99.90;;;;;;5072882;28;20194;-78
2021/08/24 01:14:46;;;;;;;9.20;5.97;;;14.50;99.90;;;;;;5073128;28;20253;-78
2021/08/24 01:17:16;;;;;;;10.80;5.93;;;14.40;99.90;;;;;;5072873;28;20226;-79
2021/08/24 01:20:05;;;;;;;11.77;5.67;;;14.40;99.90;;;;;;5072896;28;20697;-78
2021/08/24 01:22:56;;;;;;;10.17;5.63;;;14.40;99.90;;;;;;5061670;28;20650;-81
2021/08/24 01:25:30;;;;;;;10.57;6.10;;;14.30;99.90;;;;;;5072753;28;20225;-78
2021/08/24 01:28:03;;;;;;;11.10;5.87;;;14.30;99.90;;;;;;5072630;28;20264;-79
2021/08/24 01:30:47;;;;;;;11.17;6.13;;;14.30;99.90;;;;;;5072399;28;20288;-78
2021/08/24 01:33:28;;;;;;;9.47;5.60;;;14.30;99.90;;;;;;5073421;28;20227;-78
2021/08/24 01:36:13;;;;;;;8.70;6.00;;;14.20;99.90;;;;;;5072774;28;20230;-79
2021/08/24 01:38:49;;;;;;;8.17;5.63;;;14.20;99.90;;;;;;5072348;28;20214;-80
2021/08/24 01:41:21;;;;;;;12.23;6.30;;;14.20;99.90;;;;;;5072886;28;20683;-81
2021/08/24 01:43:57;;;;;;;8.47;6.43;;;14.20;99.90;;;;;;5072669;28;20254;-80
2021/08/24 01:46:31;;;;;;;8.67;6.10;;;14.10;99.90;;;;;;5063874;28;20191;-78
2021/08/24 01:49:02;;;;;;;11.40;6.80;;;14.10;99.90;;;;;;5072275;28;20317;-78
2021/08/24 01:51:36;;;;;;;11.63;6.70;;;14.10;99.90;;;;;;5074704;28;20276;-78
2021/08/24 01:54:08;;;;;;;11.20;6.17;;;14.10;99.90;;;;;;5076233;28;20195;-78
2021/08/24 01:56:38;;;;;;;9.20;6.27;;;14.10;99.90;;;;;;5076553;28;20237;-78
2021/08/24 01:59:10;;;;;;;9.90;6.63;;;14.10;99.90;;;;;;5076548;28;20204;-80
2021/08/24 02:01:41;;;;;;;11.00;6.50;;;14.10;99.90;;;;;;5076382;28;20243;-77
2021/08/24 02:04:13;;;;;;;10.53;6.63;;;14.10;99.90;;;;;;5076325;28;20287;-80
2021/08/24 02:06:44;;;;;;;9.07;6.43;;;14.00;99.90;;;;;;5076644;28;20294;-78
2021/08/24 02:09:17;;;;;;;9.93;6.63;;;13.90;99.90;;;;;;5075932;28;20249;-79
2021/08/24 02:11:45;;;;;;;9.27;6.53;;;13.90;99.90;;;;;;5076409;28;20291;-80
2021/08/24 02:14:15;;;;;;;10.50;6.30;;;13.90;99.90;;;;;;5075509;28;20231;-81
2021/08/24 02:16:44;;;;;;;14.10;6.40;;;13.90;99.90;;;;;;5076517;28;20231;-80
2021/08/24 02:19:14;;;;;;;14.73;6.83;;;13.80;99.90;;;;;;5076196;28;20214;-78
2021/08/24 02:21:45;;;;;;;9.73;6.60;;;13.80;99.90;;;;;;5076054;28;20257;-78
2021/08/24 02:24:20;;;;;;;10.20;6.70;;;13.80;99.90;;;;;;5075419;28;20227;-78
2021/08/24 02:26:50;;;;;;;13.17;7.20;;;13.80;99.90;;;;;;5076075;28;20231;-79
2021/08/24 02:29:17;;;;;;;14.07;7.33;;;13.80;99.90;;;;;;5075652;28;20227;-79
2021/08/24 02:31:50;;;;;;;9.83;6.30;;;13.70;99.90;;;;;;5075826;28;20195;-79
2021/08/24 02:34:23;;;;;;;12.03;6.90;;;13.60;99.90;;;;;;5075426;28;20294;-78
2021/08/24 02:36:59;;;;;;;9.33;6.53;;;13.60;99.90;;;;;;5075639;28;20286;-79
2021/08/24 02:39:37;;;;;;;14.17;6.87;;;13.60;99.90;;;;;;5075134;28;20210;-79
2021/08/24 02:42:09;;;;;;;14.53;7.30;;;13.60;99.90;;;;;;5075589;28;20665;-79
2021/08/24 02:44:39;;;;;;;10.50;6.97;;;13.60;99.90;;;;;;5075152;28;20299;-80
2021/08/24 02:47:07;;;;;;;10.10;7.07;;;13.50;99.90;;;;;;5075405;28;20325;-80
2021/08/24 02:49:37;;;;;;;12.70;7.17;;;13.50;99.90;;;;;;5074965;28;20310;-81
2021/08/24 02:52:10;;;;;;;10.60;7.13;;;13.40;99.90;;;;;;5075342;28;20295;-82
2021/08/24 02:54:40;;;;;;;13.37;7.53;;;13.40;99.90;;;;;;5075071;28;20244;-78
2021/08/24 02:57:08;;;;;;;10.73;7.30;;;13.40;99.90;;;;;;5075483;28;20432;-81
2021/08/24 02:59:35;;;;;;;10.17;7.20;;;13.40;99.90;;;;;;5075625;28;20267;-79
2021/08/24 03:02:03;;;;;;;13.83;7.23;;;13.40;99.90;;;;;;5073990;28;20200;-80
2021/08/24 03:04:30;;;;;;;9.93;6.80;;;13.40;99.90;;;;;;5075502;28;20268;-80
2021/08/24 03:07:00;;;;;;;10.13;7.10;;;13.40;99.90;;;;;;5075666;28;20200;-78
2021/08/24 03:09:31;;;;;;;10.07;6.80;;;13.40;99.90;;;;;;5076296;28;20309;-81
2021/08/24 03:12:07;;;;;;;12.20;7.23;;;13.40;99.90;;;;;;5075013;28;20738;-79
2021/08/24 03:14:40;;;;;;;13.93;7.70;;;13.40;99.90;;;;;;5075200;28;20290;-80
2021/08/24 03:17:14;;;;;;;11.63;7.70;;;13.40;99.90;;;;;;5075352;28;20232;-80
2021/08/24 03:19:43;;;;;;;10.57;7.50;;;13.40;99.90;;;;;;5075459;28;20211;-82
2021/08/24 03:22:12;;;;;;;11.50;7.63;;;13.40;99.90;;;;;;5075160;28;20568;-80
2021/08/24 03:24:42;;;;;;;12.27;7.70;;;13.40;99.90;;;;;;5075721;28;20291;-81
2021/08/24 03:27:11;;;;;;;11.77;7.60;;;13.30;99.90;;;;;;5074587;28;20208;-79
2021/08/24 03:29:39;;;;;;;12.93;7.70;;;13.30;99.90;;;;;;5075700;28;20262;-79
2021/08/24 03:32:08;;;;;;;13.30;7.93;;;13.20;99.90;;;;;;5085303;28;20227;-78
2021/08/24 03:34:35;;;;;;;14.20;7.70;;;13.30;99.90;;;;;;5094147;28;20199;-79
2021/08/24 03:37:02;;;;;;;12.93;7.57;;;13.30;99.90;;;;;;5094932;28;20230;-79
2021/08/24 03:39:29;;;;;;;12.63;7.50;;;13.30;99.90;;;;;;5094779;28;20207;-78
2021/08/24 03:41:58;;;;;;;10.53;7.30;;;13.30;99.90;;;;;;5094534;28;20200;-78
2021/08/24 03:44:25;;;;;;;10.40;7.03;;;13.20;99.90;;;;;;5093369;28;20207;-79
2021/08/24 03:46:51;;;;;;;11.97;7.47;;;13.30;99.90;;;;;;5093297;28;20191;-78
2021/08/24 03:49:18;;;;;;;10.67;7.67;;;13.20;99.90;;;;;;5093099;28;20230;-79
2021/08/24 03:51:45;;;;;;;11.87;7.93;;;13.20;99.90;;;;;;5092295;28;20596;-78
2021/08/24 03:54:12;;;;;;;11.83;7.47;;;13.10;99.90;;;;;;5092942;28;20203;-79
2021/08/24 03:56:41;;;;;;;10.33;7.70;;;13.10;99.90;;;;;;5075962;28;20234;-79
2021/08/24 03:59:09;;;;;;;13.27;8.03;;;13.20;99.90;;;;;;5075743;28;20231;-78
2021/08/24 04:01:36;;;;;;;13.30;8.10;;;13.20;99.90;;;;;;5075031;28;20231;-80
2021/08/24 04:04:03;;;;;;;14.00;7.87;;;13.20;99.90;;;;;;5075077;28;20235;-79
2021/08/24 04:06:30;;;;;;;10.93;7.60;;;13.10;99.90;;;;;;5075764;28;20612;-79
2021/08/24 04:08:57;;;;;;;9.90;6.97;;;13.10;99.90;;;;;;5086240;28;20223;-80
2021/08/24 04:11:24;;;;;;;10.53;7.60;;;13.00;99.90;;;;;;5074073;28;20207;-79
2021/08/24 04:13:51;;;;;;;10.20;7.70;;;13.00;99.90;;;;;;5073430;28;20283;-79
2021/08/24 04:16:19;;;;;;;8.87;7.37;;;13.00;99.90;;;;;;5074192;28;20331;-82
2021/08/24 04:18:46;;;;;;;9.83;7.47;;;13.00;99.90;;;;;;5073744;28;20344;-80
2021/08/24 04:21:16;;;;;;;10.23;7.87;;;13.00;99.90;;;;;;5074125;28;20239;-80
2021/08/24 04:23:45;;;;;;;12.60;7.87;;;13.00;99.90;;;;;;5073167;28;20207;-80
2021/08/24 04:26:12;;;;;;;10.57;8.03;;;13.00;99.90;;;;;;5073566;28;20223;-78
2021/08/24 04:28:39;;;;;;;13.13;8.57;;;12.90;99.90;;;;;;5073159;28;20282;-79
2021/08/24 04:31:08;;;;;;;11.13;7.60;;;12.90;99.90;;;;;;5073353;28;20203;-80
2021/08/24 04:33:37;;;;;;;13.60;7.40;;;12.90;99.90;;;;;;5073369;28;20286;-80
2021/08/24 04:36:06;;;;;;;13.60;8.27;;;12.80;99.90;;;;;;5073224;28;20607;-81
2021/08/24 04:38:33;;;;;;;12.83;8.90;;;12.80;99.90;;;;;;5073731;28;20206;-80
2021/08/24 04:41:01;;;;;;;11.97;8.70;;;12.70;99.90;;;;;;5073272;28;20278;-80
2021/08/24 04:43:28;;;;;;;15.63;9.00;;;12.80;99.90;;;;;;5073350;28;20277;-79
2021/08/24 04:45:56;;;;;;;12.07;8.43;;;12.80;99.90;;;;;;5072956;28;20199;-79
2021/08/24 04:48:22;;;;;;;16.53;8.50;;;12.80;99.90;;;;;;5073113;28;20726;-80
2021/08/24 04:50:51;;;;;;;12.47;8.90;;;12.80;99.90;;;;;;5072670;28;20611;-80
2021/08/24 04:53:18;;;;;;;14.63;8.67;;;12.70;99.90;;;;;;5059534;28;20230;-79
2021/08/24 04:55:45;;;;;;;13.53;9.10;;;12.80;99.90;;;;;;5072958;28;20235;-83
2021/08/24 04:58:11;;;;;;;12.43;8.63;;;12.80;99.90;;;;;;5072835;28;20647;-78
2021/08/24 05:00:38;;;;;;;16.87;8.60;;;12.80;99.90;;;;;;5073378;28;20570;-81
2021/08/24 05:03:05;;;;;;;14.33;8.67;;;12.80;99.90;;;;;;5072930;28;20237;-80
2021/08/24 05:05:32;;;;;;;9.63;7.83;;;12.90;99.90;;;;;;5073240;28;20287;-80
2021/08/24 05:08:01;;;;;;;12.03;8.57;;;12.80;99.90;;;;;;5072949;28;20200;-81
2021/08/24 05:10:28;;;;;;;16.50;8.33;;;12.90;99.90;;;;;;5072961;28;20254;-80
2021/08/24 05:12:55;;;;;;;10.97;8.27;;;13.10;99.90;;;;;;5071679;28;20672;-82
2021/08/24 05:15:22;;;;;;;11.80;8.53;;;13.30;99.90;;;;;;5071899;28;20318;-80
2021/08/24 05:17:49;;;;;;;12.53;8.63;;;13.50;99.90;;;;;;5071816;28;20712;-79
2021/08/24 05:20:17;;;;;;;11.03;7.07;;;13.80;99.90;;;;;;5072600;28;20239;-80
2021/08/24 05:22:45;;;;;;;10.70;6.97;;;14.20;99.90;;;;;;5073010;28;20290;-79
2021/08/24 05:25:16;;;;;;;8.23;6.23;;;14.50;99.90;;;;;;5072940;28;20211;-81
2021/08/24 05:27:43;;;;;;;9.00;6.17;;;14.80;99.90;;;;;;5076445;28;20290;-80
2021/08/24 05:30:13;;;;;;;7.33;5.80;;;15.00;99.90;;;;;;5076235;28;20314;-80
2021/08/24 05:32:40;;;;;;;8.50;5.70;;;15.10;99.90;;;;;;5076451;28;20206;-79
2021/08/24 05:35:07;;;;;;;10.83;5.90;;;14.90;99.90;;;;;;5070445;28;20253;-80
2021/08/24 05:37:35;;;;;;;11.23;5.47;;;14.50;99.90;;;;;;5070334;28;20656;-79
2021/08/24 05:40:02;;;;;;;8.47;5.83;;;14.20;99.90;;;;;;5073177;28;20263;-79
2021/08/24 05:42:30;;;;;;;11.23;6.30;;;14.00;99.90;;;;;;5062510;28;20242;-82
2021/08/24 05:44:58;;;;;;;10.70;5.83;;;13.70;99.90;;;;;;5075463;28;20266;-80
2021/08/24 05:47:25;;;;;;;15.40;7.13;;;13.60;99.90;;;;;;5076393;28;20210;-80
2021/08/24 05:49:52;;;;;;;13.23;6.33;;;13.60;99.90;;;;;;5075609;28;20305;-80
2021/08/24 05:52:19;;;;;;;15.70;6.40;;;13.60;99.90;;;;;;5076024;28;20625;-78
2021/08/24 05:54:47;;;;;;;13.00;6.47;;;13.50;99.90;;;;;;5072756;28;20227;-81
2021/08/24 05:57:15;;;;;;;11.90;6.67;;;13.60;99.90;;;;;;5075715;28;20209;-80
2021/08/24 05:59:44;;;;;;;12.10;7.17;;;13.60;99.90;;;;;;5076412;28;20291;-79
2021/08/24 06:02:11;;;;;;;11.90;6.53;;;13.60;99.90;;;;;;5075380;28;20571;-79
2021/08/24 06:04:38;;;;;;;9.70;6.63;;;13.60;99.90;;;;;;5074378;28;20199;-80
2021/08/24 06:07:06;;;;;;;10.83;7.07;;;13.60;99.90;;;;;;5075696;28;20633;-80
2021/08/24 06:09:33;;;;;;;12.20;7.33;;;13.60;99.90;;;;;;5076339;28;20804;-79
2021/08/24 06:12:01;;;;;;;8.83;6.83;;;13.70;99.90;;;;;;5075979;28;20671;-80
2021/08/24 06:14:28;;;;;;;11.63;7.37;;;13.70;99.90;;;;;;5075971;28;20202;-82
2021/08/24 06:16:57;;;;;;;10.13;7.33;;;13.70;99.90;;;;;;5076079;28;20283;-80
2021/08/24 06:19:25;;;;;;;12.10;7.10;;;13.80;99.90;;;;;;5075970;28;20192;-83
2021/08/24 06:21:52;;;;;;;14.53;7.93;;;13.80;99.90;;;;;;5076079;28;20227;-80
2021/08/24 06:24:20;;;;;;;10.70;7.00;;;13.80;99.90;;;;;;5076137;28;20651;-80
2021/08/24 06:26:47;;;;;;;8.87;6.90;;;13.90;99.90;;;;;;5076372;28;20702;-80
2021/08/24 06:29:14;;;;;;;8.67;7.23;;;14.00;99.90;;;;;;5075877;28;20328;-80
2021/08/24 06:31:44;;;;;;;12.73;6.90;;;14.10;99.90;;;;;;5076191;28;20227;-81
2021/08/24 06:34:14;;;;;;;12.00;6.70;;;14.20;99.90;;;;;;5075820;28;20673;-80
2021/08/24 06:36:42;;;;;;;9.90;6.73;;;14.30;99.90;;;;;;5075661;28;20202;-81
2021/08/24 06:39:10;;;;;;;8.83;6.23;;;14.30;99.90;;;;;;5075998;28;20200;-80
2021/08/24 06:41:38;;;;;;;13.43;6.20;;;14.30;99.90;;;;;;5076224;28;20549;-76
2021/08/24 06:44:06;;;;;;;10.20;6.10;;;14.30;99.90;;;;;;5075718;28;20641;-80
2021/08/24 06:46:34;;;;;;;13.87;6.63;;;14.40;99.90;;;;;;5075827;28;20201;-78
2021/08/24 06:49:01;;;;;;;11.87;6.37;;;14.40;99.90;;;;;;5075363;28;20223;-79
2021/08/24 06:51:29;;;;;;;11.43;6.53;;;14.60;99.90;;;;;;5075528;28;20316;-80
2021/08/24 06:53:56;;;;;;;9.37;6.37;;;14.60;99.90;;;;;;5075838;28;20680;-81
2021/08/24 06:56:23;;;;;;;8.90;5.80;;;14.60;99.90;;;;;;5075476;28;20326;-79
2021/08/24 06:58:50;;;;;;;10.00;5.70;;;14.70;99.90;;;;;;5075724;28;20203;-80
2021/08/24 07:01:21;;;;;;;9.30;6.00;;;14.60;99.90;;;;;;5074802;28;20290;-80
2021/08/24 07:03:48;;;;;;;12.43;5.97;;;14.60;99.90;;;;;;5093291;28;20191;-80
2021/08/24 07:06:15;;;;;;;9.47;6.27;;;14.80;99.90;;;;;;5095228;28;20233;-78
2021/08/24 07:08:44;;;;;;;7.87;5.87;;;14.90;99.90;;;;;;5083356;28;20290;-79
2021/08/24 07:11:12;;;;;;;13.37;6.00;;;14.90;99.90;;;;;;5093584;28;20372;-80
2021/08/24 07:13:40;;;;;;;10.20;6.67;;;15.10;99.90;;;;;;5095569;28;20198;-79
2021/08/24 07:16:08;;;;;;;8.80;6.00;;;15.10;99.90;;;;;;5095389;28;20199;-78
2021/08/24 07:18:35;;;;;;;10.20;5.83;;;15.10;99.90;;;;;;5094953;28;20291;-79
2021/08/24 07:21:03;;;;;;;7.40;5.30;;;15.10;99.90;;;;;;5095604;28;20645;-79
2021/08/24 07:23:30;;;;;;;12.53;5.77;;;15.20;99.90;;;;;;5088988;28;20203;-79
2021/08/24 07:25:58;;;;;;;10.77;5.60;;;15.30;99.90;;;;;;5081722;28;20230;-82
2021/08/24 07:28:25;;;;;;;8.27;5.93;;;15.40;99.90;;;;;;5095563;28;20622;-82
2021/08/24 07:30:52;;;;;;;7.90;5.63;;;15.50;99.90;;;;;;5078090;28;20709;-81
2021/08/24 07:33:20;;;;;;;9.57;5.60;;;15.50;99.90;;;;;;5080049;28;20234;-79
2021/08/24 07:35:47;;;;;;;12.63;5.43;;;15.60;99.90;;;;;;5079097;28;20297;-79
2021/08/24 07:38:15;;;;;;;7.53;5.10;;;15.70;99.90;;;;;;5085145;28;20227;-81
2021/08/24 07:40:42;;;;;;;9.63;4.87;;;15.70;99.90;;;;;;5090124;28;20231;-79
2021/08/24 07:43:11;;;;;;;7.60;5.30;;;15.80;99.90;;;;;;5090843;28;20257;-79
2021/08/24 07:45:38;;;;;;;7.70;4.80;;;15.90;99.90;;;;;;5083219;28;20195;-79
2021/08/24 07:48:05;;;;;;;6.63;4.73;;;15.90;99.90;;;;;;5073752;28;20249;-81
2021/08/24 07:50:33;;;;;;;10.63;4.90;;;16.10;99.90;;;;;;5087475;28;20218;-82
2021/08/24 07:53:00;;;;;;;9.70;5.03;;;16.10;99.90;;;;;;5083954;28;20203;-81
2021/08/24 07:55:27;;;;;;;10.43;4.90;;;16.20;99.90;;;;;;5094354;28;20203;-79
2021/08/24 07:57:54;;;;;;;7.70;4.40;;;16.30;99.90;;;;;;5091840;28;20298;-79
2021/08/24 08:00:23;;;;;;;9.23;5.03;;;16.40;99.90;;;;;;5083641;28;20281;-80
2021/08/24 08:02:53;;;;;;;14.43;5.23;;;16.40;99.90;;;;;;5090363;28;20234;-80
2021/08/24 08:05:20;;;;;;;12.53;4.80;;;16.30;99.90;;;;;;5079934;28;20298;-78
2021/08/24 08:07:47;;;;;;;6.87;4.90;;;16.40;99.90;;;;;;5094250;28;20199;-78
2021/08/24 08:10:14;;;;;;;9.67;5.37;;;16.50;99.90;;;;;;5093193;28;20219;-79
2021/08/24 08:12:42;;;;;;;7.57;5.13;;;16.60;99.90;;;;;;5096535;28;20290;-79
2021/08/24 08:15:12;;;;;;;13.97;5.33;;;16.80;99.90;;;;;;5103990;28;20226;-78
2021/08/24 08:17:40;;;;;;;7.90;4.70;;;16.80;99.90;;;;;;5110234;28;20222;-77
2021/08/24 08:20:09;;;;;;;7.90;4.57;;;16.90;99.90;;;;;;5111606;28;20210;-78
2021/08/24 08:22:36;;;;;;;7.27;5.17;;;16.90;99.90;;;;;;5105146;28;20214;-79
2021/08/24 08:25:04;;;;;;;9.13;5.07;;;17.00;99.90;;;;;;5108001;28;20237;-79
2021/08/24 08:27:31;;;;;;;11.27;5.03;;;17.10;99.90;;;;;;5110454;28;20712;-79
2021/08/24 08:29:58;;;;;;;8.77;4.70;;;17.30;99.90;;;;;;5113248;28;20202;-79
2021/08/24 08:32:28;;;;;;;8.63;4.40;;;18.00;99.90;;;;;;5077202;28;20199;-79
2021/08/24 08:34:57;;;;;;;6.23;4.23;;;19.10;99.90;;;;;;5087846;28;20204;-80
2021/08/24 08:37:25;;;;;;;11.93;4.87;;;20.90;99.90;;;;;;5071700;28;20290;-79
2021/08/24 08:39:52;;;;;;;7.67;4.47;;;22.10;99.90;;;;;;5073236;28;20309;-79
2021/08/24 08:42:39;;;;;;;7.73;4.50;;;22.40;99.90;;;;;;5073946;28;20204;-79
2021/08/24 08:45:11;;;;;;;10.57;3.97;;;22.50;99.90;;;;;;5073428;28;20203;-79
2021/08/24 08:47:55;;;;;;;10.63;4.18;;;23.00;99.90;;;;;;5073016;28;20287;-79
2021/08/24 08:50:32;;;;;;;8.13;4.40;;;23.00;99.90;;;;;;5071818;28;20713;-78
2021/08/24 08:53:06;;;;;;;7.75;4.07;;;23.40;99.90;;;;;;5073255;28;20260;-80
2021/08/24 08:55:42;;;;;;;4.78;3.88;;;23.60;99.90;;;;;;5072213;28;20252;-80
2021/08/24 08:58:20;;;;;;;5.05;3.58;;;23.40;99.90;;;;;;5073506;28;20203;-81
2021/08/24 09:00:51;;;;;;;6.78;4.20;;;24.40;99.90;;;;;;5078218;28;20213;-81
2021/08/24 09:03:20;;;;;;;5.72;3.67;;;25.60;99.90;;;;;;5073124;28;20751;-78
2021/08/24 09:05:49;;;;;;;5.45;3.80;;;25.80;99.90;;;;;;5073425;28;20195;-81
2021/08/24 09:08:19;;;;;;;7.30;3.90;;;24.20;99.90;;;;;;5073539;28;20628;-81
2021/08/24 09:10:49;;;;;;;8.50;3.53;;;23.80;99.90;;;;;;5073395;28;20273;-79
2021/08/24 09:13:25;;;;;;;7.07;3.45;;;24.30;99.90;;;;;;5072064;28;20249;-80
2021/08/24 09:15:57;;;;;;;7.55;3.20;;;24.60;99.90;;;;;;5076925;28;20201;-79
2021/08/24 09:18:40;;;;;;;6.22;3.67;;;25.30;99.90;;;;;;5080557;28;20630;-80
2021/08/24 09:21:10;;;;;;;7.25;3.90;;;25.70;99.90;;;;;;5078996;28;20562;-80
2021/08/24 09:23:37;;;;;;;6.43;3.05;;;25.40;99.90;;;;;;5074834;28;20283;-77
2021/08/24 09:26:15;;;;;;;4.50;3.08;;;26.10;99.90;;;;;;5087152;28;20227;-80
2021/08/24 09:28:42;;;;;;;4.40;3.00;;;25.70;99.90;;;;;;5083667;28;20624;-80
2021/08/24 09:31:16;;;;;;;5.07;3.20;;;25.50;99.90;;;;;;5088803;28;20222;-79
2021/08/24 09:33:43;;;;;;;3.25;2.80;;;25.40;99.90;;;;;;5080731;28;20256;-80
2021/08/24 09:36:11;;;;;;;9.45;3.33;;;25.90;99.90;;;;;;5082000;28;20290;-79
2021/08/24 09:38:48;;;;;;;5.10;3.25;;;26.40;99.90;;;;;;5077976;28;20549;-80
2021/08/24 09:41:23;;;;;;;4.10;3.10;;;25.80;99.90;;;;;;5082176;28;20241;-79
2021/08/24 09:43:52;;;;;;;5.85;3.00;;;25.10;99.90;;;;;;5076510;28;20242;-80
2021/08/24 09:46:33;;;;;;;9.77;3.65;;;24.70;99.90;;;;;;5084318;28;20256;-82
2021/08/24 09:49:03;;;;;;;4.65;2.92;;;25.70;99.90;;;;;;5083988;28;20558;-78
2021/08/24 09:51:51;;;;;;;4.22;2.78;;;25.30;99.90;;;;;;5089551;28;20218;-82
2021/08/24 09:54:31;;;;;;;7.28;2.97;;;24.30;99.90;;;;;;5082166;28;20615;-81
2021/08/24 09:57:02;;;;;;;5.60;2.92;;;25.20;99.90;;;;;;5077720;28;20231;-80
2021/08/24 09:59:33;;;;;;;4.03;2.80;;;25.70;99.90;;;;;;5075908;28;20250;-79
2021/08/24 10:02:01;;;;;;;3.70;2.50;;;26.20;99.90;;;;;;5079711;28;20273;-79
2021/08/24 10:04:28;;;;;;;7.68;3.00;;;25.90;99.90;;;;;;5081016;28;20191;-79
2021/08/24 10:07:02;;;;;;;3.63;2.60;;;25.00;99.90;;;;;;5078802;28;20191;-78
2021/08/24 10:09:32;;;;;;;5.18;2.67;;;25.60;99.90;;;;;;5076251;28;20222;-80
2021/08/24 10:12:21;;;;;;;7.57;2.88;;;25.50;99.90;;;;;;5077185;28;20306;-79
2021/08/24 10:14:51;;;;;;;4.50;3.22;;;25.80;99.90;;;;;;5085952;28;20227;-78
2021/08/24 10:17:30;;;;;;;5.85;3.10;;;25.50;99.90;;;;;;5092179;28;20191;-80
2021/08/24 10:19:58;;;;;;;6.10;3.10;;;25.70;99.90;;;;;;5071118;28;20218;-78
2021/08/24 10:22:31;;;;;;;4.38;3.13;;;25.80;99.90;;;;;;5085502;28;20208;-79
2021/08/24 10:25:02;;;;;;;3.78;2.67;;;25.40;99.90;;;;;;5075752;28;20594;-78
2021/08/24 10:27:32;;;;;;;3.95;2.90;;;26.20;99.90;;;;;;5076444;28;20191;-80
2021/08/24 10:30:03;;;;;;;3.85;2.80;;;25.80;99.90;;;;;;5076189;28;20231;-81
2021/08/24 10:32:33;;;;;;;3.28;2.63;;;25.30;99.90;;;;;;5077829;28;20318;-80
2021/08/24 10:35:09;;;;;;;5.57;2.40;;;25.20;99.90;;;;;;5078498;28;20204;-78
2021/08/24 10:37:47;;;;;;;5.57;2.90;;;24.60;99.90;;;;;;5079790;28;20264;-78
2021/08/24 10:40:26;;;;;;;5.63;2.72;;;24.50;99.90;;;;;;5078457;28;20556;-78
2021/08/24 10:43:26;;;;;;;4.32;2.80;;;24.90;99.90;;;;;;5087662;28;20616;-80
2021/08/24 10:46:07;;;;;;;6.70;2.60;;;25.00;99.90;;;;;;5033214;28;20315;-78
2021/08/24 10:48:35;;;;;;;5.28;2.38;;;24.70;99.90;;;;;;5032195;28;20263;-78
2021/08/24 10:51:09;;;;;;;5.45;2.90;;;24.40;99.90;;;;;;5053339;28;20258;-79
2021/08/24 10:53:46;;;;;;;6.32;2.97;;;24.10;99.90;;;;;;5084041;28;20199;-80
2021/08/24 10:56:19;;;;;;;3.58;2.63;;;24.90;99.90;;;;;;5089791;28;20539;-77
2021/08/24 10:58:55;;;;;;;5.00;2.60;;;25.30;99.90;;;;;;5080624;28;20199;-78
2021/08/24 11:01:27;;;;;;;7.20;2.20;;;24.70;99.90;;;;;;5079713;28;20286;-79
2021/08/24 11:04:10;;;;;;;5.70;2.60;;;24.40;99.90;;;;;;5078154;28;20218;-79
2021/08/24 11:06:41;;;;;;;4.40;2.72;;;24.30;99.90;;;;;;5072232;28;20326;-84
2021/08/24 11:09:20;;;;;;;4.68;2.63;;;23.60;99.90;;;;;;5082737;28;20206;-81
2021/08/24 11:11:58;;;;;;;4.40;2.55;;;23.70;99.90;;;;;;5086599;28;20239;-83
2021/08/24 11:14:35;;;;;;;5.78;2.80;;;24.10;99.90;;;;;;5087321;28;20277;-84
2021/08/24 11:17:15;;;;;;;4.63;3.38;;;24.90;99.90;;;;;;5081042;28;20321;-83
2021/08/24 11:19:56;;;;;;;7.70;2.60;;;24.40;99.90;;;;;;5090371;28;20211;-81
2021/08/24 11:22:30;;;;;;;7.55;2.50;;;23.70;99.90;;;;;;5082864;28;20208;-84
2021/08/24 11:25:09;;;;;;;4.10;2.50;;;24.20;99.90;;;;;;5088094;28;20691;-80
2021/08/24 11:27:45;;;;;;;5.88;2.30;;;24.10;99.90;;;;;;5084370;28;20320;-80
2021/08/24 11:30:21;;;;;;;5.28;2.60;;;23.40;99.90;;;;;;5091030;28;20230;-82
2021/08/24 11:32:54;;;;;;;3.97;2.55;;;22.40;99.90;;;;;;5084693;28;20329;-82
2021/08/24 11:35:29;;;;;;;4.93;2.33;;;22.60;99.90;;;;;;5088784;28;20604;-81
2021/08/24 11:38:00;;;;;;;3.45;2.20;;;23.00;99.90;;;;;;5085369;28;20562;-80
2021/08/24 11:40:37;;;;;;;3.45;2.30;;;22.80;99.90;;;;;;5093895;28;20603;-83
2021/08/24 11:43:08;;;;;;;5.15;2.10;;;23.20;99.90;;;;;;5094570;28;20206;-80
2021/08/24 11:45:42;;;;;;;3.38;2.25;;;23.70;99.90;;;;;;5094539;28;20222;-81
2021/08/24 11:48:15;;;;;;;5.43;2.50;;;24.10;99.90;;;;;;5094871;28;20281;-79
2021/08/24 11:50:48;;;;;;;3.78;2.20;;;23.80;99.90;;;;;;5094527;28;20256;-81
2021/08/24 11:53:23;;;;;;;7.90;2.10;;;23.60;99.90;;;;;;5083561;28;20230;-79
2021/08/24 11:55:56;;;;;;;4.93;2.22;;;23.30;99.90;;;;;;5094448;28;20648;-82
2021/08/24 11:58:31;;;;;;;4.82;2.40;;;23.90;99.90;;;;;;5091747;28;20293;-80
2021/08/24 12:01:01;;;;;;;7.93;2.35;;;24.50;99.90;;;;;;5091779;28;20244;-80
2021/08/24 12:03:29;;;;;;;3.75;2.13;;;24.70;99.90;;;;;;5077590;28;20222;-80
2021/08/24 12:06:05;;;;;;;2.88;1.85;;;24.00;99.90;;;;;;5075197;28;20286;-80
2021/08/24 12:08:35;;;;;;;3.28;2.17;;;23.60;99.90;;;;;;5076720;28;20202;-80
2021/08/24 12:11:07;;;;;;;4.95;2.35;;;23.60;99.90;;;;;;5092082;28;20199;-82
2021/08/24 12:13:36;;;;;;;9.15;2.15;;;23.60;99.90;;;;;;5093254;28;20210;-82
2021/08/24 12:16:24;;;;;;;3.97;2.50;;;23.90;99.90;;;;;;5091000;28;20256;-80
2021/08/24 12:18:54;;;;;;;5.20;2.40;;;23.70;99.90;;;;;;5077758;28;20196;-81
2021/08/24 12:21:35;;;;;;;4.78;2.60;;;24.00;99.90;;;;;;5079730;28;20196;-85
2021/08/24 12:24:49;;;;;;;4.97;2.50;;;24.70;99.90;;;;;;5087521;28;20206;-82
2021/08/24 12:27:42;;;;;;;4.78;2.35;;;24.00;99.90;;;;;;5016943;28;20241;-81
2021/08/24 12:30:16;;;;;;;2.97;2.22;;;22.90;99.90;;;;;;5007623;28;20201;-81
2021/08/24 12:33:10;;;;;;;7.55;2.20;;;23.00;99.90;;;;;;5049738;28;20685;-80
2021/08/24 12:35:42;;;;;;;4.95;2.30;;;23.00;99.90;;;;;;5056353;28;20222;-85
2021/08/24 12:38:47;;;;;;;4.18;2.80;;;22.70;99.90;;;;;;5077947;28;20645;-81
2021/08/24 12:41:48;;;;;;;6.40;2.75;;;22.00;99.90;;;;;;5085393;28;20211;-81
2021/08/24 12:44:43;;;;;;;4.47;2.50;;;22.20;99.90;;;;;;5088556;28;20203;-80
2021/08/24 12:47:35;;;;;;;3.90;2.90;;;22.80;99.90;;;;;;5065861;28;20264;-80
2021/08/24 12:50:36;;;;;;;4.75;2.50;;;23.10;99.90;;;;;;5074329;28;20286;-81
2021/08/24 12:53:45;;;;;;;4.30;2.53;;;23.60;99.90;;;;;;5067713;28;20569;-80
2021/08/24 12:56:28;;;;;;;6.10;2.75;;;23.50;99.90;;;;;;5038996;28;20298;-83
2021/08/24 12:58:55;;;;;;;5.60;2.50;;;23.30;99.90;;;;;;5066615;28;20277;-84
2021/08/24 13:01:27;;;;;;;3.63;2.50;;;22.70;99.90;;;;;;5075127;28;20208;-82
2021/08/24 13:04:09;;;;;;;3.78;2.13;;;22.10;99.90;;;;;;5075274;28;20649;-83